Time;durP1;ratioP1;P1;durP2;ratioP2;P2;SDS_P1;SDS_P2;PMS_P1;PMS_P2;Temp;Humidity;BMP_temperature;BMP_pressure;BME280_temperature;BME280_humidity;BME280_pressure;Samples;Min_cycle;Max_cycle;Signal;HPM_P1;HPM_P2
2022/11/30 00:00:03;;;;;;;53.13;40.80;;;;;;;5.22;100.00;102337.88;5164513;28;20033;-67
2022/11/30 00:02:34;;;;;;;84.30;42.33;;;;;;;5.20;100.00;102348.78;5164028;28;20387;-67
2022/11/30 00:05:05;;;;;;;41.55;36.97;;;;;;;5.17;100.00;102340.31;5164678;28;20050;-67
2022/11/30 00:07:35;;;;;;;65.15;38.17;;;;;;;5.16;100.00;102344.84;5164640;28;20053;-67
2022/11/30 00:10:07;;;;;;;47.67;38.67;;;;;;;5.18;100.00;102350.84;5164582;28;20117;-67
2022/11/30 00:12:41;;;;;;;65.90;38.20;;;;;;;5.04;100.00;102330.22;5163616;28;20084;-67
2022/11/30 00:15:13;;;;;;;67.40;38.80;;;;;;;5.20;100.00;102348.78;5147113;28;20030;-67
2022/11/30 00:17:43;;;;;;;59.97;37.05;;;;;;;5.15;100.00;102345.00;5147008;28;20026;-67
2022/11/30 00:20:14;;;;;;;67.78;41.55;;;;;;;5.19;100.00;102344.47;5164483;28;20026;-67
2022/11/30 00:22:45;;;;;;;74.78;40.05;;;;;;;5.21;100.00;102347.75;5163850;28;20504;-67
2022/11/30 00:25:15;;;;;;;58.05;39.88;;;;;;;5.22;100.00;102340.56;5164514;28;20019;-67
2022/11/30 00:27:46;;;;;;;95.78;39.88;;;;;;;5.22;100.00;102349.44;5164568;28;20031;-67
2022/11/30 00:30:16;;;;;;;76.32;37.33;;;;;;;5.23;100.00;102340.38;5164461;28;20026;-67
2022/11/30 00:32:46;;;;;;;69.07;36.40;;;;;;;5.24;100.00;102334.00;5163524;28;20046;-66
2022/11/30 00:35:17;;;;;;;82.03;36.75;;;;;;;5.24;100.00;102339.38;5164268;28;20084;-67
2022/11/30 00:37:47;;;;;;;101.15;43.42;;;;;;;5.19;100.00;102328.41;5164371;28;20505;-67
2022/11/30 00:40:18;;;;;;;73.65;38.58;;;;;;;5.19;100.00;102327.56;5164267;28;20105;-67
2022/11/30 00:42:48;;;;;;;56.60;40.65;;;;;;;5.20;100.00;102332.72;5146183;28;20438;-67
2022/11/30 00:45:18;;;;;;;103.60;39.45;;;;;;;5.22;100.00;102343.25;5163968;28;20034;-67
2022/11/30 00:47:49;;;;;;;64.05;37.88;;;;;;;5.21;100.00;102326.34;5163844;28;20116;-67
2022/11/30 00:50:19;;;;;;;83.03;39.63;;;;;;;5.22;100.00;102317.28;5163872;28;20096;-67
2022/11/30 00:52:49;;;;;;;87.15;41.45;;;;;;;5.22;100.00;102329.84;5162823;28;20052;-67
2022/11/30 00:55:20;;;;;;;75.90;38.92;;;;;;;5.06;100.00;102315.63;5163789;28;20022;-67
2022/11/30 00:57:50;;;;;;;85.30;39.90;;;;;;;5.08;100.00;102337.72;5163527;28;20100;-67
2022/11/30 01:00:20;;;;;;;55.85;36.90;;;;;;;5.11;100.00;102341.03;5163469;28;20024;-67
2022/11/30 01:02:55;;;;;;;65.50;39.58;;;;;;;5.10;100.00;102334.84;5162739;28;20030;-67
2022/11/30 01:05:25;;;;;;;67.78;38.70;;;;;;;5.16;100.00;102331.44;5163513;28;20363;-67
2022/11/30 01:07:59;;;;;;;86.43;40.40;;;;;;;5.19;100.00;102344.47;5163333;28;20026;-67
2022/11/30 01:10:29;;;;;;;59.95;39.08;;;;;;;5.12;100.00;102324.78;5163137;28;20474;-67
2022/11/30 01:13:00;;;;;;;50.33;37.80;;;;;;;5.14;100.00;102324.59;5162429;28;20053;-69
2022/11/30 01:15:34;;;;;;;90.93;37.83;;;;;;;5.17;100.00;102329.59;5163177;28;20065;-67
2022/11/30 01:18:05;;;;;;;76.18;36.35;;;;;;;5.16;100.00;102335.97;5163060;28;20030;-67
2022/11/30 01:20:39;;;;;;;80.10;36.90;;;;;;;5.15;100.00;102334.31;5163146;28;20038;-67
2022/11/30 01:23:10;;;;;;;66.65;35.88;;;;;;;5.10;100.00;102332.16;5162505;28;20018;-67
2022/11/30 01:25:40;;;;;;;52.72;37.53;;;;;;;5.08;100.00;102339.56;5163179;28;20438;-67
2022/11/30 01:28:11;;;;;;;80.38;37.25;;;;;;;5.08;100.00;102350.25;5163243;28;20033;-67
2022/11/30 01:30:41;;;;;;;57.85;40.65;;;;;;;5.07;100.00;102346.75;5163032;28;20483;-67
2022/11/30 01:33:11;;;;;;;55.10;38.15;;;;;;;5.09;100.00;102349.25;5162641;28;20033;-67
2022/11/30 01:35:42;;;;;;;44.72;38.53;;;;;;;5.12;100.00;102354.25;5163398;28;20490;-67
2022/11/30 01:38:12;;;;;;;60.13;38.38;;;;;;;5.14;100.00;102349.53;5163214;28;20502;-69
2022/11/30 01:40:49;;;;;;;58.08;36.88;;;;;;;5.14;100.00;102346.88;5162923;28;20022;-66
2022/11/30 01:43:19;;;;;;;60.92;37.05;;;;;;;5.08;100.00;102342.22;5162498;28;20395;-66
2022/11/30 01:45:50;;;;;;;49.13;36.22;;;;;;;5.02;100.00;102327.72;5162704;28;20050;-66
2022/11/30 01:48:21;;;;;;;39.78;35.50;;;;;;;5.10;100.00;102334.84;5162941;28;20033;-66
2022/11/30 01:50:51;;;;;;;51.10;38.30;;;;;;;5.13;100.00;102341.69;5162955;28;20451;-66
2022/11/30 01:53:23;;;;;;;46.95;40.10;;;;;;;5.14;100.00;102340.66;5162308;28;20030;-66
2022/11/30 01:55:54;;;;;;;41.38;36.72;;;;;;;5.11;100.00;102341.88;5162848;28;20045;-66
2022/11/30 01:58:28;;;;;;;41.70;35.78;;;;;;;5.14;100.00;102333.47;5163068;28;20034;-66
2022/11/30 02:00:58;;;;;;;54.05;38.53;;;;;;;5.14;100.00;102335.31;5162626;28;20022;-65
2022/11/30 02:03:46;;;;;;;46.15;35.63;;;;;;;5.10;100.00;102334.84;5162320;28;20121;-66
2022/11/30 02:06:17;;;;;;;49.45;36.58;;;;;;;5.08;100.00;102347.59;5165374;28;20026;-65
2022/11/30 02:08:47;;;;;;;60.00;39.40;;;;;;;5.07;100.00;102354.78;5166521;28;20088;-66
2022/11/30 02:11:17;;;;;;;67.57;36.42;;;;;;;5.04;100.00;102354.31;5166897;28;20026;-66
2022/11/30 02:14:01;;;;;;;57.60;42.08;;;;;;;4.92;100.00;102340.53;5165795;28;20033;-66
2022/11/30 02:16:57;;;;;;;48.13;38.33;;;;;;;5.03;100.00;102356.16;5149055;28;20076;-66
2022/11/30 02:19:46;;;;;;;50.70;35.95;;;;;;;5.05;100.00;102359.50;5166362;28;20490;-66
2022/11/30 02:22:22;;;;;;;51.75;35.47;;;;;;;5.08;100.00;102358.31;5166019;28;20026;-67
2022/11/30 02:25:12;;;;;;;46.08;35.80;;;;;;;5.08;100.00;102360.97;5166131;28;20022;-66
2022/11/30 02:27:51;;;;;;;43.10;35.22;;;;;;;5.06;100.00;102363.84;5166094;28;20029;-66
2022/11/30 02:30:22;;;;;;;51.13;37.38;;;;;;;5.04;100.00;102368.53;5166061;28;20041;-65
2022/11/30 02:33:08;;;;;;;49.03;35.80;;;;;;;4.94;100.00;102353.75;5165862;28;20022;-66
2022/11/30 02:35:42;;;;;;;50.22;36.40;;;;;;;5.01;100.00;102362.72;5166326;28;20064;-66
2022/11/30 02:38:14;;;;;;;51.63;41.08;;;;;;;5.04;100.00;102367.69;5148684;28;20057;-66
2022/11/30 02:40:44;;;;;;;74.68;39.03;;;;;;;5.03;100.00;102366.88;5166025;28;20033;-66
2022/11/30 02:43:17;;;;;;;48.03;36.75;;;;;;;5.04;100.00;102359.66;5166083;28;20105;-66
2022/11/30 02:45:57;;;;;;;63.67;38.03;;;;;;;5.05;100.00;102362.16;5166040;28;20440;-69
2022/11/30 02:48:36;;;;;;;49.17;39.97;;;;;;;4.99;100.00;102356.72;5166052;28;20022;-66
2022/11/30 02:51:09;;;;;;;52.65;37.65;;;;;;;5.08;100.00;102359.13;5165973;28;20077;-65
2022/11/30 02:53:40;;;;;;;75.43;41.83;;;;;;;4.99;100.00;102354.88;5165141;28;20438;-67
2022/11/30 02:56:11;;;;;;;71.97;41.00;;;;;;;5.08;100.00;102369.00;5165663;28;20030;-66
2022/11/30 02:58:42;;;;;;;52.08;41.72;;;;;;;5.00;100.00;102361.03;5165280;28;20023;-66
2022/11/30 03:01:12;;;;;;;58.70;38.10;;;;;;;5.04;100.00;102373.06;5165770;28;20138;-66
2022/11/30 03:03:43;;;;;;;47.55;35.20;;;;;;;4.99;100.00;102364.75;5165131;28;20026;-66
2022/11/30 03:06:14;;;;;;;47.80;36.08;;;;;;;5.05;100.00;102372.03;5165596;28;20479;-66
2022/11/30 03:08:44;;;;;;;44.13;37.72;;;;;;;5.05;100.00;102364.00;5165685;28;20065;-66
2022/11/30 03:11:14;;;;;;;61.13;39.40;;;;;;;5.07;100.00;102368.19;5165449;28;20023;-66
2022/11/30 03:13:45;;;;;;;42.45;34.60;;;;;;;5.07;100.00;102367.34;5164580;28;20053;-66
2022/11/30 03:16:15;;;;;;;52.45;35.92;;;;;;;4.98;100.00;102352.38;5165433;28;20076;-67
2022/11/30 03:18:45;;;;;;;52.22;34.17;;;;;;;5.02;100.00;102359.84;5147848;28;20029;-67
2022/11/30 03:21:16;;;;;;;63.17;39.65;;;;;;;5.01;100.00;102368.91;5165276;28;20023;-67
2022/11/30 03:23:46;;;;;;;53.33;39.38;;;;;;;5.01;100.00;102366.22;5147291;28;20486;-66
2022/11/30 03:26:16;;;;;;;44.30;33.58;;;;;;;5.03;100.00;102371.41;5165382;28;20029;-67
2022/11/30 03:28:47;;;;;;;52.10;37.53;;;;;;;5.03;100.00;102371.41;5165148;28;20048;-67
2022/11/30 03:31:17;;;;;;;44.38;34.17;;;;;;;4.98;100.00;102363.06;5165289;28;20533;-68
2022/11/30 03:33:47;;;;;;;44.38;35.47;;;;;;;5.01;100.00;102365.38;5164615;28;20022;-68
2022/11/30 03:36:18;;;;;;;73.22;37.95;;;;;;;5.02;100.00;102372.41;5164857;28;20076;-69
2022/11/30 03:38:48;;;;;;;69.63;36.03;;;;;;;4.92;100.00;102348.56;5165058;28;20050;-68
2022/11/30 03:41:19;;;;;;;64.00;38.70;;;;;;;5.02;100.00;102367.06;5147634;28;20026;-68
2022/11/30 03:43:49;;;;;;;87.60;40.42;;;;;;;4.99;100.00;102367.41;5164408;28;20075;-67
2022/11/30 03:46:20;;;;;;;70.13;35.97;;;;;;;4.98;100.00;102363.06;5164896;28;20026;-67
2022/11/30 03:48:50;;;;;;;77.72;39.10;;;;;;;4.98;100.00;102361.22;5164897;28;20536;-68
2022/11/30 03:51:21;;;;;;;45.65;36.00;;;;;;;4.85;100.00;102339.63;5165083;28;20034;-68
2022/11/30 03:53:51;;;;;;;45.50;37.40;;;;;;;5.02;100.00;102369.72;5164361;28;20513;-68
2022/11/30 03:56:23;;;;;;;67.72;35.25;;;;;;;5.01;100.00;102371.56;5164791;28;20039;-70
2022/11/30 03:58:53;;;;;;;42.70;33.67;;;;;;;4.82;100.00;102345.34;5164658;28;20033;-68
2022/11/30 04:01:24;;;;;;;50.63;36.25;;;;;;;5.03;100.00;102374.91;5164563;28;20128;-68
2022/11/30 04:03:54;;;;;;;53.92;39.47;;;;;;;4.94;100.00;102356.41;5163844;28;20069;-67
2022/11/30 04:06:24;;;;;;;43.65;35.22;;;;;;;5.01;100.00;102373.41;5164688;28;20486;-69
2022/11/30 04:08:55;;;;;;;56.15;38.00;;;;;;;5.04;100.00;102370.38;5164466;28;20018;-69
2022/11/30 04:11:25;;;;;;;55.58;37.03;;;;;;;5.03;100.00;102371.41;5164514;28;20060;-68
2022/11/30 04:13:55;;;;;;;58.05;39.63;;;;;;;4.99;100.00;102364.75;5168208;23;20418;-69
2022/11/30 04:16:26;;;;;;;72.32;44.50;;;;;;;5.05;100.00;102377.41;5139774;28;20221;-66
2022/11/30 04:18:56;;;;;;;61.60;41.08;;;;;;;5.06;100.00;102384.41;5144983;28;20113;-67
2022/11/30 04:21:27;;;;;;;44.63;36.75;;;;;;;4.95;100.00;102356.22;5145126;28;20027;-66
2022/11/30 04:23:57;;;;;;;83.18;39.55;;;;;;;5.09;100.00;102381.38;5144912;28;20019;-68
2022/11/30 04:26:27;;;;;;;57.67;40.30;;;;;;;4.98;100.00;102360.41;5144849;28;20161;-66
2022/11/30 04:28:58;;;;;;;68.32;39.92;;;;;;;5.07;100.00;102383.41;5143930;28;20026;-66
2022/11/30 04:31:28;;;;;;;43.42;35.38;;;;;;;5.07;100.00;102378.88;5144874;28;20027;-67
2022/11/30 04:33:58;;;;;;;43.38;38.83;;;;;;;5.04;100.00;102387.28;5144162;28;20055;-66
2022/11/30 04:36:29;;;;;;;58.75;38.42;;;;;;;5.06;100.00;102395.97;5144864;28;20030;-67
2022/11/30 04:38:59;;;;;;;52.65;41.00;;;;;;;5.05;100.00;102399.66;5144502;28;20498;-67
2022/11/30 04:41:30;;;;;;;48.08;39.05;;;;;;;5.05;100.00;102393.47;5144497;28;20031;-67
2022/11/30 04:44:00;;;;;;;41.10;36.28;;;;;;;5.04;100.00;102398.00;5143861;28;20046;-67
2022/11/30 04:46:30;;;;;;;44.55;35.70;;;;;;;5.01;100.00;102394.84;5144217;28;20022;-67
2022/11/30 04:49:01;;;;;;;52.45;37.75;;;;;;;5.03;100.00;102401.69;5144692;28;20027;-67
2022/11/30 04:51:31;;;;;;;41.53;34.80;;;;;;;5.01;100.00;102394.84;5144436;28;20134;-67
2022/11/30 04:54:02;;;;;;;50.67;40.45;;;;;;;4.95;100.00;102384.84;5143776;28;20329;-67
2022/11/30 04:56:32;;;;;;;62.40;36.05;;;;;;;5.01;100.00;102390.31;5144380;28;20031;-67
2022/11/30 04:59:02;;;;;;;56.10;41.42;;;;;;;4.89;100.00;102375.72;5143962;28;20027;-67
2022/11/30 05:01:33;;;;;;;49.63;39.88;;;;;;;5.01;100.00;102397.50;5144324;28;20031;-68
2022/11/30 05:04:03;;;;;;;54.28;40.35;;;;;;;4.97;100.00;102390.84;5143879;28;20014;-67
2022/11/30 05:06:34;;;;;;;59.95;39.42;;;;;;;4.97;100.00;102394.38;5144217;28;20030;-67
2022/11/30 05:09:04;;;;;;;52.13;38.40;;;;;;;4.88;100.00;102386.63;5146181;28;20015;-67
2022/11/30 05:11:35;;;;;;;49.55;39.50;;;;;;;3.90;100.00;102216.25;5162276;23;20050;-90
2022/11/30 05:14:05;;;;;;;59.83;45.70;;;;;;;4.32;100.00;102287.09;5142492;28;20042;-90
2022/11/30 05:16:36;;;;;;;59.20;43.42;;;;;;;3.92;100.00;102227.59;5145392;28;20086;-92
2022/11/30 05:19:06;;;;;;;51.78;42.10;;;;;;;3.84;100.00;102200.09;5146808;28;20062;-91
2022/11/30 05:21:37;;;;;;;60.53;41.45;;;;;;;3.97;100.00;102219.88;5143040;28;20027;-91
2022/11/30 05:24:08;;;;;;;56.47;42.63;;;;;;;4.35;100.00;102287.53;5159846;28;20026;-91
2022/11/30 05:26:38;;;;;;;88.35;41.35;;;;;;;4.43;100.00;102302.69;5142238;28;20038;-91
2022/11/30 05:29:14;;;;;;;64.32;43.83;;;;;;;4.28;100.00;102307.19;5143380;28;20034;-91
2022/11/30 05:31:45;;;;;;;88.35;52.67;;;;;;;4.47;100.00;102332.59;5141923;28;20029;-93
2022/11/30 05:34:15;;;;;;;64.20;47.30;;;;;;;4.52;100.00;102348.94;5142861;28;20400;-91
2022/11/30 05:37:07;;;;;;;93.88;47.47;;;;;;;3.93;100.00;102225.75;5143779;28;20027;-91
2022/11/30 05:39:38;;;;;;;105.00;43.58;;;;;;;3.37;100.00;102155.69;5146198;28;20050;-91
2022/11/30 05:42:08;;;;;;;101.45;43.75;;;;;;;3.16;100.00;102126.13;5145222;28;20030;-92
2022/11/30 05:44:39;;;;;;;64.20;42.60;;;;;;;4.99;100.00;102407.56;5145986;28;20014;-91
2022/11/30 05:47:09;;;;;;;52.55;39.10;;;;;;;4.19;100.00;102302.91;5144997;28;20082;-88
2022/11/30 05:49:43;;;;;;;59.03;41.20;;;;;;;4.97;100.00;102405.06;5163831;28;20035;-91
2022/11/30 05:52:16;;;;;;;65.40;44.53;;;;;;;3.97;100.00;102256.47;5152942;28;20054;-92
2022/11/30 05:54:49;;;;;;;83.07;42.55;;;;;;;5.00;100.00;102420.78;5148794;28;20082;-92
2022/11/30 05:57:22;;;;;;;95.75;42.78;;;;;;;4.92;100.00;102395.91;5164265;28;20035;-92
2022/11/30 06:02:34;;;;;;;78.68;43.85;;;;;;;4.99;100.00;102407.56;5165885;28;20062;-67
2022/11/30 06:05:05;;;;;;;89.03;49.17;;;;;;;4.98;100.00;102408.59;5148801;28;20019;-68
2022/11/30 06:07:36;;;;;;;65.22;44.30;;;;;;;4.98;100.00;102416.63;5148338;28;20324;-67
2022/11/30 06:10:07;;;;;;;91.75;46.33;;;;;;;4.98;100.00;102412.09;5148920;28;20037;-68
2022/11/30 06:12:37;;;;;;;84.22;45.17;;;;;;;4.90;100.00;102392.63;5147146;28;20022;-67
2022/11/30 06:15:08;;;;;;;75.80;42.58;;;;;;;5.00;100.00;102415.44;5148563;28;20481;-68
2022/11/30 06:17:38;;;;;;;76.65;42.75;;;;;;;5.01;100.00;102425.13;5148788;28;20030;-67
2022/11/30 06:20:09;;;;;;;63.72;40.90;;;;;;;5.04;100.00;102419.41;5148562;28;20022;-68
2022/11/30 06:22:39;;;;;;;61.78;42.83;;;;;;;5.07;100.00;102411.00;5147698;28;20086;-68
2022/11/30 06:25:10;;;;;;;68.60;43.42;;;;;;;5.07;100.00;102410.19;5148609;28;20364;-70
2022/11/30 06:27:42;;;;;;;71.03;45.47;;;;;;;5.07;100.00;102411.00;5148132;28;20309;-68
2022/11/30 06:30:13;;;;;;;105.80;51.40;;;;;;;5.10;100.00;102415.19;5145436;28;20019;-68
2022/11/30 06:32:48;;;;;;;92.85;47.92;;;;;;;5.10;100.00;102423.22;5147786;28;20027;-68
2022/11/30 06:35:18;;;;;;;76.00;44.95;;;;;;;5.12;100.00;102423.03;5148917;28;20031;-67
2022/11/30 06:37:48;;;;;;;83.07;41.97;;;;;;;5.11;100.00;102413.34;5146776;28;20053;-67
2022/11/30 06:40:19;;;;;;;54.30;43.45;;;;;;;5.07;100.00;102420.91;5146960;28;20026;-67
2022/11/30 06:42:49;;;;;;;73.75;48.70;;;;;;;5.08;100.00;102422.56;5143720;28;20062;-67
2022/11/30 06:45:20;;;;;;;61.55;44.50;;;;;;;5.02;100.00;102423.28;5148082;28;20026;-68
2022/11/30 06:47:54;;;;;;;79.45;44.28;;;;;;;5.03;100.00;102433.81;5147931;28;20486;-67
2022/11/30 06:50:24;;;;;;;54.00;43.47;;;;;;;4.81;100.00;102393.69;5146991;28;20030;-67
2022/11/30 06:52:55;;;;;;;56.03;39.85;;;;;;;4.93;100.00;102419.00;5146938;28;20399;-67
2022/11/30 06:55:26;;;;;;;77.10;41.10;;;;;;;4.99;100.00;102437.03;5130677;28;20103;-68
2022/11/30 06:58:03;;;;;;;72.63;42.28;;;;;;;5.03;100.00;102438.31;5147620;28;20023;-68
2022/11/30 07:00:35;;;;;;;81.28;47.60;;;;;;;5.04;100.00;102442.66;5129731;28;20027;-66
2022/11/30 07:03:05;;;;;;;124.65;52.88;;;;;;;5.00;100.00;102436.84;5146137;28;20023;-66
2022/11/30 07:05:44;;;;;;;83.93;45.58;;;;;;;5.02;100.00;102445.53;5146973;28;20085;-67
2022/11/30 07:08:15;;;;;;;106.25;45.05;;;;;;;4.99;100.00;102447.72;5146151;28;20483;-66
2022/11/30 07:10:46;;;;;;;122.78;51.70;;;;;;;5.03;100.00;102459.75;5145922;28;20019;-67
2022/11/30 07:13:18;;;;;;;79.25;44.08;;;;;;;5.01;100.00;102448.38;5145242;28;20030;-67
2022/11/30 07:15:48;;;;;;;69.80;44.25;;;;;;;5.02;100.00;102455.41;5145585;28;20030;-67
2022/11/30 07:18:18;;;;;;;88.15;45.55;;;;;;;5.02;100.00;102450.88;5145465;28;20085;-67
2022/11/30 07:20:49;;;;;;;68.30;43.05;;;;;;;4.99;100.00;102459.28;5145680;28;20479;-67
2022/11/30 07:26:08;;;;;;;134.73;48.13;;;;;;;4.79;100.00;102431.34;5145550;28;20077;-67
2022/11/30 07:28:41;;;;;;;98.65;47.03;;;;;;;4.97;100.00;102472.00;5145350;28;20054;-67
2022/11/30 07:31:23;;;;;;;79.72;43.67;;;;;;;4.93;100.00;102473.38;5145505;28;20078;-67
2022/11/30 07:33:55;;;;;;;54.83;41.60;;;;;;;4.94;100.00;102474.19;5127515;28;20069;-67
2022/11/30 07:36:26;;;;;;;122.90;46.45;;;;;;;4.91;100.00;102472.72;5145321;28;20023;-67
2022/11/30 07:38:57;;;;;;;140.15;45.63;;;;;;;4.70;100.00;102432.41;5145141;28;20502;-67
2022/11/30 07:41:27;;;;;;;80.00;43.17;;;;;;;4.98;100.00;102475.50;5145228;28;20026;-67
2022/11/30 07:43:58;;;;;;;115.93;44.67;;;;;;;4.99;100.00;102478.00;5144400;28;20114;-67
2022/11/30 07:46:30;;;;;;;103.68;41.97;;;;;;;4.99;100.00;102482.53;5145546;28;20502;-67
2022/11/30 07:49:08;;;;;;;108.28;43.67;;;;;;;4.98;100.00;102480.88;5146398;28;20403;-66
2022/11/30 07:51:39;;;;;;;88.10;47.83;;;;;;;4.83;100.00;102455.91;5180573;23;20042;-91
2022/11/30 07:54:10;;;;;;;98.32;45.03;;;;;;;4.36;100.00;102379.31;5163503;28;20082;-88
2022/11/30 07:56:40;;;;;;;95.20;43.28;;;;;;;5.00;100.00;102489.56;5146760;28;20027;-91
2022/11/30 07:59:10;;;;;;;82.78;41.83;;;;;;;5.04;100.00;102485.50;5150086;28;20030;-92
2022/11/30 08:01:41;;;;;;;137.02;49.97;;;;;;;4.99;100.00;102491.41;5150647;28;20036;-92
2022/11/30 08:04:12;;;;;;;72.28;46.00;;;;;;;4.28;100.00;102368.69;5149387;28;20097;-92
2022/11/30 08:06:43;;;;;;;101.65;45.05;;;;;;;5.08;100.00;102519.78;5148815;28;20520;-92
2022/11/30 08:09:13;;;;;;;55.67;41.90;;;;;;;3.43;100.00;102235.09;5149900;28;20023;-92
2022/11/30 08:11:44;;;;;;;94.78;47.67;;;;;;;5.14;100.00;102496.81;5148810;28;20031;-91
2022/11/30 08:14:14;;;;;;;67.18;44.50;;;;;;;4.44;100.00;102370.41;5148373;28;20109;-91
2022/11/30 08:16:44;;;;;;;94.32;44.55;;;;;;;4.80;100.00;102451.75;5150150;28;20081;-90
2022/11/30 08:19:15;;;;;;;91.40;43.03;;;;;;;5.14;100.00;102496.81;5149741;28;20022;-90
2022/11/30 08:21:45;;;;;;;86.07;44.47;;;;;;;4.94;100.00;102480.38;5150016;28;20033;-89
2022/11/30 08:24:16;;;;;;;114.47;49.13;;;;;;;5.14;100.00;102512.88;5147975;28;20029;-91
2022/11/30 08:26:50;;;;;;;78.28;43.03;;;;;;;5.14;100.00;102517.41;5149617;28;20041;-91
2022/11/30 08:29:21;;;;;;;83.25;43.85;;;;;;;4.95;100.00;102486.56;5148008;28;20047;-91
2022/11/30 08:31:51;;;;;;;87.70;40.28;;;;;;;5.20;100.00;102520.19;5147999;28;20508;-91
2022/11/30 08:34:22;;;;;;;136.30;45.95;;;;;;;5.05;100.00;102492.53;5148727;28;20026;-91
2022/11/30 08:36:52;;;;;;;75.13;46.35;;;;;;;4.64;100.00;102427.75;5147641;28;20026;-91
2022/11/30 08:39:22;;;;;;;85.75;40.17;;;;;;;5.25;100.00;102509.75;5147606;28;20034;-92
2022/11/30 08:41:53;;;;;;;73.47;46.53;;;;;;;4.25;100.00;102356.50;5147849;28;20034;-90
2022/11/30 08:44:23;;;;;;;70.90;45.30;;;;;;;5.38;100.00;102520.72;5147376;28;20428;-91
2022/11/30 08:46:56;;;;;;;76.80;45.63;;;;;;;4.99;100.00;102461.94;5146355;28;20121;-90
2022/11/30 08:49:27;;;;;;;67.45;40.97;;;;;;;5.52;100.00;102518.22;5146578;28;20395;-91
2022/11/30 08:51:57;;;;;;;76.63;41.42;;;;;;;5.21;100.00;102481.66;5145418;28;20031;-91
2022/11/30 08:54:27;;;;;;;73.28;47.13;;;;;;;5.31;100.00;102489.47;5145171;28;20023;-90
2022/11/30 08:56:58;;;;;;;59.17;40.72;;;;;;;4.69;100.00;102410.16;5140924;28;20022;-91
2022/11/30 08:59:30;;;;;;;42.42;36.25;;;;;;;4.60;100.00;102381.81;5146454;28;20023;-91
2022/11/30 09:02:01;;;;;;;69.32;37.95;;;;;;;4.58;100.00;102364.28;5133121;28;20034;-91
2022/11/30 09:04:31;;;;;;;58.40;38.97;;;;;;;5.36;100.00;102490.59;5142188;28;20054;-91
2022/11/30 09:07:02;;;;;;;58.28;43.60;;;;;;;5.67;100.00;102524.47;5141840;28;20131;-89
2022/11/30 09:09:33;;;;;;;50.92;38.40;;;;;;;4.67;100.00;102350.63;5134209;28;20023;-92
2022/11/30 09:12:03;;;;;;;68.10;40.85;;;;;;;5.19;100.00;102424.81;5134560;28;20385;-92
2022/11/30 09:14:34;;;;;;;52.42;37.15;;;;;;;5.76;100.00;102545.66;5134032;28;20135;-92
2022/11/30 09:17:07;;;;;;;51.13;41.08;;;;;;;5.87;100.00;102552.38;5133319;29;20027;-90
2022/11/30 09:19:37;;;;;;;56.72;36.33;;;;;;;4.94;100.00;102362.59;5133084;28;20035;-89
2022/11/30 09:22:08;;;;;;;47.05;35.17;;;;;;;6.13;100.00;102551.97;5125328;28;20024;-89
2022/11/30 09:24:40;;;;;;;40.65;34.03;;;;;;;5.16;100.00;102378.81;5126395;28;20023;-90
2022/11/30 09:27:10;;;;;;;44.88;35.83;;;;;;;5.45;100.00;102428.91;5127728;28;20047;-90
2022/11/30 09:29:41;;;;;;;40.15;35.40;;;;;;;5.88;100.00;102505.78;5144201;28;20018;-89
2022/11/30 09:32:12;;;;;;;38.72;34.65;;;;;;;5.86;100.00;102517.72;5151823;28;20015;-89
2022/11/30 09:34:43;;;;;;;39.15;35.15;;;;;;;5.24;100.00;102405.50;5135151;28;20035;-90
2022/11/30 09:37:14;;;;;;;40.13;35.90;;;;;;;5.11;100.00;102400.78;5152062;28;20023;-90
2022/11/30 09:39:44;;;;;;;56.95;40.00;;;;;;;5.83;100.00;102512.72;5151520;28;20031;-90
2022/11/30 09:42:28;;;;;;;35.65;32.22;;;;;;;5.92;100.00;102523.22;5150616;28;20075;-90
2022/11/30 09:45:06;;;;;;;49.83;38.67;;;;;;;6.04;100.00;102540.53;5149304;28;20116;-89
2022/11/30 09:47:45;;;;;;;39.97;34.33;;;;;;;6.02;100.00;102542.56;5148299;28;20063;-89
2022/11/30 09:50:19;;;;;;;44.57;36.63;;;;;;;6.03;100.00;102549.59;5131666;29;20085;-90
2022/11/30 09:52:57;;;;;;;40.15;33.83;;;;;;;6.06;100.00;102549.19;5145003;28;20279;-91
2022/11/30 09:55:32;;;;;;;42.17;36.08;;;;;;;6.25;100.00;102555.03;5142808;28;20035;-92
2022/11/30 09:58:05;;;;;;;41.70;32.90;;;;;;;6.00;100.00;102490.13;5135248;28;20083;-91
2022/11/30 10:00:35;;;;;;;40.58;35.92;;;;;;;6.40;100.00;102551.31;5137844;28;20458;-91
2022/11/30 10:03:06;;;;;;;38.03;34.15;;;;;;;5.96;100.00;102478.94;5140794;28;20053;-90
2022/11/30 10:06:03;;;;;;;39.58;31.02;;;;;;;6.49;100.00;102541.31;5131571;28;20085;-90
2022/11/30 10:09:02;;;;;;;42.85;34.63;;;;;;;6.17;100.00;102496.09;5127532;28;20081;-91
2022/11/30 10:11:33;;;;;;;39.87;35.13;;;;;;;6.54;100.00;102541.56;5124905;29;20048;-89
2022/11/30 10:14:28;;;;;;;40.30;36.70;;;;;;;6.43;100.00;102542.03;5143291;23;20059;-88
2022/11/30 10:17:22;;;;;;;42.00;37.63;;;;;;;6.39;100.00;102538.91;5134460;28;20023;-89
2022/11/30 10:20:16;;;;;;;35.05;30.85;;;;;;;6.38;100.00;102549.81;5135509;29;20031;-87
2022/11/30 10:23:12;;;;;;;34.47;30.98;;;;;;;6.35;100.00;102536.81;5134444;28;20063;-88
2022/11/30 10:26:08;;;;;;;36.85;32.75;;;;;;;6.35;100.00;102547.53;5135165;28;20397;-87
2022/11/30 10:28:49;;;;;;;33.28;29.90;;;;;;;6.23;100.00;102512.28;5138360;29;20030;-88
2022/11/30 10:31:32;;;;;;;38.17;34.47;;;;;;;6.39;100.00;102527.34;5137542;28;20401;-88
2022/11/30 10:34:27;;;;;;;38.13;34.25;;;;;;;6.46;100.00;102535.47;5136667;28;20519;-89
2022/11/30 10:37:09;;;;;;;37.85;34.15;;;;;;;6.10;100.00;102478.06;5137659;29;20106;-88
2022/11/30 10:40:04;;;;;;;40.85;36.65;;;;;;;6.54;100.00;102522.78;5138823;29;20050;-89
2022/11/30 10:42:51;;;;;;;38.10;34.17;;;;;;;5.93;100.00;102420.31;5142639;28;20027;-87
2022/11/30 10:45:24;;;;;;;40.92;36.78;;;;;;;5.77;100.00;102420.50;5139229;28;20417;-88
2022/11/30 10:47:54;;;;;;;42.97;37.03;;;;;;;6.55;100.00;102532.50;5141984;29;20055;-88
2022/11/30 10:50:28;;;;;;;45.00;35.60;;;;;;;6.52;100.00;102532.03;5141055;28;20091;-88
2022/11/30 10:52:59;;;;;;;43.17;38.85;;;;;;;5.92;100.00;102437.41;5140830;28;20031;-89
2022/11/30 10:55:39;;;;;;;44.80;39.33;;;;;;;6.02;100.00;102448.69;5142192;28;20099;-88
2022/11/30 10:58:25;;;;;;;38.63;34.72;;;;;;;6.37;100.00;102473.03;5138234;29;20054;-89
2022/11/30 11:01:28;;;;;;;39.78;36.03;;;;;;;6.68;100.00;102519.22;5137798;28;20118;-88
2022/11/30 11:04:21;;;;;;;43.30;38.55;;;;;;;6.77;100.00;102512.72;5128767;28;20031;-88
2022/11/30 11:06:54;;;;;;;45.88;41.05;;;;;;;6.92;100.00;102517.22;5141030;28;20046;-88
2022/11/30 11:09:44;;;;;;;49.03;42.22;;;;;;;6.99;100.00;102512.72;5139166;29;20031;-87
2022/11/30 11:12:23;;;;;;;49.35;43.53;;;;;;;6.89;100.00;102498.81;5137542;28;20042;-86
2022/11/30 11:15:23;;;;;;;47.15;41.78;;;;;;;7.06;100.00;102500.19;5137414;28;20090;-88
2022/11/30 11:18:22;;;;;;;43.35;37.72;;;;;;;7.10;100.00;102482.66;5140354;28;20031;-88
2022/11/30 11:21:06;;;;;;;43.42;38.85;;;;;;;7.10;100.00;102453.13;5138581;29;20030;-88
2022/11/30 11:23:39;;;;;;;47.00;42.15;;;;;;;7.73;100.00;102497.84;5143107;28;20098;-88
2022/11/30 11:26:19;;;;;;;53.80;43.45;;;;;;;7.92;100.00;102501.66;5139722;29;20023;-89
2022/11/30 11:28:53;;;;;;;41.33;36.70;;;;;;;7.56;100.00;102455.31;5138745;29;20071;-88
2022/11/30 11:31:41;;;;;;;44.53;40.17;;;;;;;7.55;100.00;102450.97;5139309;28;20023;-88
2022/11/30 11:34:32;;;;;;;40.13;36.22;;;;;;;7.71;100.00;102478.38;5138105;28;20086;-88
2022/11/30 11:37:17;;;;;;;48.30;36.38;;;;;;;7.72;100.00;102498.88;5137530;28;20023;-87
2022/11/30 11:39:59;;;;;;;40.92;36.20;;;;;;;7.76;100.00;102488.56;5139752;28;20071;-88
2022/11/30 11:42:40;;;;;;;43.55;39.15;;;;;;;7.71;100.00;102478.38;5139958;28;20044;-89